sensor_id;sensor_type;location;lat;lon;timestamp;temperature;humidity
13835;DHT22;6988;52.614;13.500;2023-03-12T00:03:00;0.80;99.90
13835;DHT22;6988;52.614;13.500;2023-03-12T00:07:52;0.80;99.90
13835;DHT22;6988;52.614;13.500;2023-03-12T00:12:49;0.80;99.90
13835;DHT22;6988;52.614;13.500;2023-03-12T00:17:41;0.80;99.90
13835;DHT22;6988;52.614;13.500;2023-03-12T00:22:34;0.80;99.90
13835;DHT22;6988;52.614;13.500;2023-03-12T00:27:27;0.70;99.90
13835;DHT22;6988;52.614;13.500;2023-03-12T00:32:19;0.70;99.90
13835;DHT22;6988;52.614;13.500;2023-03-12T00:37:13;0.70;99.90
13835;DHT22;6988;52.614;13.500;2023-03-12T00:42:06;0.70;99.90
13835;DHT22;6988;52.614;13.500;2023-03-12T00:46:58;0.80;99.90
13835;DHT22;6988;52.614;13.500;2023-03-12T00:51:50;0.80;99.90
13835;DHT22;6988;52.614;13.500;2023-03-12T00:56:43;0.90;99.90
13835;DHT22;6988;52.614;13.500;2023-03-12T01:01:37;0.90;99.90
13835;DHT22;6988;52.614;13.500;2023-03-12T01:06:29;1.00;99.90
13835;DHT22;6988;52.614;13.500;2023-03-12T01:11:21;1.10;99.90
13835;DHT22;6988;52.614;13.500;2023-03-12T01:16:14;1.00;99.90
13835;DHT22;6988;52.614;13.500;2023-03-12T01:21:07;1.00;99.90
13835;DHT22;6988;52.614;13.500;2023-03-12T01:25:58;1.00;99.90
13835;DHT22;6988;52.614;13.500;2023-03-12T01:30:51;1.00;99.90
13835;DHT22;6988;52.614;13.500;2023-03-12T01:35:44;1.00;99.90
13835;DHT22;6988;52.614;13.500;2023-03-12T01:40:37;1.10;99.90
13835;DHT22;6988;52.614;13.500;2023-03-12T01:45:58;1.10;99.90
13835;DHT22;6988;52.614;13.500;2023-03-12T01:50:55;1.10;99.90
13835;DHT22;6988;52.614;13.500;2023-03-12T01:55:49;1.20;99.90
13835;DHT22;6988;52.614;13.500;2023-03-12T02:00:41;1.20;99.90
13835;DHT22;6988;52.614;13.500;2023-03-12T02:05:39;1.10;99.90
13835;DHT22;6988;52.614;13.500;2023-03-12T02:10:37;1.20;99.90
13835;DHT22;6988;52.614;13.500;2023-03-12T02:15:32;1.10;99.90
13835;DHT22;6988;52.614;13.500;2023-03-12T02:20:29;1.20;99.90
13835;DHT22;6988;52.614;13.500;2023-03-12T02:25:30;1.10;99.90
13835;DHT22;6988;52.614;13.500;2023-03-12T02:30:29;1.00;99.90
13835;DHT22;6988;52.614;13.500;2023-03-12T02:35:22;1.00;99.90
13835;DHT22;6988;52.614;13.500;2023-03-12T02:40:17;0.90;99.90
13835;DHT22;6988;52.614;13.500;2023-03-12T02:45:15;0.80;99.90
13835;DHT22;6988;52.614;13.500;2023-03-12T02:50:10;0.80;99.90
13835;DHT22;6988;52.614;13.500;2023-03-12T02:55:02;0.70;99.90
13835;DHT22;6988;52.614;13.500;2023-03-12T02:59:55;0.70;99.90
13835;DHT22;6988;52.614;13.500;2023-03-12T03:04:48;0.60;99.90
13835;DHT22;6988;52.614;13.500;2023-03-12T03:09:40;0.70;99.90
13835;DHT22;6988;52.614;13.500;2023-03-12T03:14:32;0.40;99.90
13835;DHT22;6988;52.614;13.500;2023-03-12T03:19:25;0.40;99.90
13835;DHT22;6988;52.614;13.500;2023-03-12T03:24:18;0.40;99.90
13835;DHT22;6988;52.614;13.500;2023-03-12T03:29:12;0.40;99.90
13835;DHT22;6988;52.614;13.500;2023-03-12T03:34:04;0.30;99.90
13835;DHT22;6988;52.614;13.500;2023-03-12T03:38:56;0.30;99.90
13835;DHT22;6988;52.614;13.500;2023-03-12T03:43:49;0.20;99.90
13835;DHT22;6988;52.614;13.500;2023-03-12T03:48:43;0.20;99.90
13835;DHT22;6988;52.614;13.500;2023-03-12T03:53:37;0.10;99.90
13835;DHT22;6988;52.614;13.500;2023-03-12T03:58:29;0.10;99.90
13835;DHT22;6988;52.614;13.500;2023-03-12T04:03:22;0.10;99.90
13835;DHT22;6988;52.614;13.500;2023-03-12T04:08:14;0.00;99.90
13835;DHT22;6988;52.614;13.500;2023-03-12T04:13:06;0.00;99.90
13835;DHT22;6988;52.614;13.500;2023-03-12T04:17:58;0.00;99.90
13835;DHT22;6988;52.614;13.500;2023-03-12T04:22:53;0.00;99.90
13835;DHT22;6988;52.614;13.500;2023-03-12T04:27:44;-0.10;99.90
13835;DHT22;6988;52.614;13.500;2023-03-12T04:32:37;0.00;99.90
13835;DHT22;6988;52.614;13.500;2023-03-12T04:37:31;-0.10;99.90
13835;DHT22;6988;52.614;13.500;2023-03-12T04:42:26;-0.10;99.90
13835;DHT22;6988;52.614;13.500;2023-03-12T04:47:18;-0.10;99.90
13835;DHT22;6988;52.614;13.500;2023-03-12T04:52:10;-0.10;99.90
13835;DHT22;6988;52.614;13.500;2023-03-12T04:57:05;-0.20;99.90
13835;DHT22;6988;52.614;13.500;2023-03-12T05:01:58;-0.10;99.90
13835;DHT22;6988;52.614;13.500;2023-03-12T05:06:52;-0.20;99.90
13835;DHT22;6988;52.614;13.500;2023-03-12T05:11:44;-0.30;99.90
13835;DHT22;6988;52.614;13.500;2023-03-12T05:16:39;-0.30;99.90
13835;DHT22;6988;52.614;13.500;2023-03-12T05:21:33;-0.30;99.90
13835;DHT22;6988;52.614;13.500;2023-03-12T05:26:26;-0.30;99.90
13835;DHT22;6988;52.614;13.500;2023-03-12T05:31:27;-0.30;99.90
13835;DHT22;6988;52.614;13.500;2023-03-12T05:36:23;-0.40;99.90
13835;DHT22;6988;52.614;13.500;2023-03-12T05:41:20;-0.40;99.90
13835;DHT22;6988;52.614;13.500;2023-03-12T05:46:15;-0.50;99.90
13835;DHT22;6988;52.614;13.500;2023-03-12T05:51:07;-0.50;99.90
13835;DHT22;6988;52.614;13.500;2023-03-12T05:56:02;-0.50;99.90
13835;DHT22;6988;52.614;13.500;2023-03-12T06:00:56;-0.40;99.90
13835;DHT22;6988;52.614;13.500;2023-03-12T06:05:48;-0.40;99.90
13835;DHT22;6988;52.614;13.500;2023-03-12T06:10:45;-0.30;99.90
13835;DHT22;6988;52.614;13.500;2023-03-12T06:15:37;-0.40;99.90
13835;DHT22;6988;52.614;13.500;2023-03-12T06:20:31;-0.30;99.90
13835;DHT22;6988;52.614;13.500;2023-03-12T06:25:24;-0.30;99.90
13835;DHT22;6988;52.614;13.500;2023-03-12T06:30:16;-0.20;99.90
13835;DHT22;6988;52.614;13.500;2023-03-12T06:35:08;-0.20;99.90
13835;DHT22;6988;52.614;13.500;2023-03-12T06:40:02;0.00;99.90
13835;DHT22;6988;52.614;13.500;2023-03-12T06:44:56;0.20;99.90
13835;DHT22;6988;52.614;13.500;2023-03-12T06:49:48;0.40;99.90
13835;DHT22;6988;52.614;13.500;2023-03-12T06:54:40;0.50;99.90
13835;DHT22;6988;52.614;13.500;2023-03-12T06:59:33;0.80;99.90
13835;DHT22;6988;52.614;13.500;2023-03-12T07:04:25;1.10;99.90
13835;DHT22;6988;52.614;13.500;2023-03-12T07:09:17;1.40;99.90
13835;DHT22;6988;52.614;13.500;2023-03-12T07:14:10;1.50;99.90
13835;DHT22;6988;52.614;13.500;2023-03-12T07:19:03;1.70;99.90
13835;DHT22;6988;52.614;13.500;2023-03-12T07:23:55;1.90;99.90
13835;DHT22;6988;52.614;13.500;2023-03-12T07:28:47;2.00;99.90
13835;DHT22;6988;52.614;13.500;2023-03-12T07:33:39;2.10;99.90
13835;DHT22;6988;52.614;13.500;2023-03-12T07:38:33;2.30;99.90
13835;DHT22;6988;52.614;13.500;2023-03-12T07:43:25;2.60;99.90
13835;DHT22;6988;52.614;13.500;2023-03-12T07:48:18;2.80;99.90
13835;DHT22;6988;52.614;13.500;2023-03-12T07:53:10;3.00;99.90
13835;DHT22;6988;52.614;13.500;2023-03-12T07:58:04;3.40;99.90
13835;DHT22;6988;52.614;13.500;2023-03-12T08:02:56;3.90;99.90
13835;DHT22;6988;52.614;13.500;2023-03-12T08:07:48;4.00;99.90
13835;DHT22;6988;52.614;13.500;2023-03-12T08:12:40;3.90;99.90
13835;DHT22;6988;52.614;13.500;2023-03-12T08:17:34;4.00;99.90
13835;DHT22;6988;52.614;13.500;2023-03-12T08:22:26;4.10;99.90
13835;DHT22;6988;52.614;13.500;2023-03-12T08:27:18;4.10;99.90
13835;DHT22;6988;52.614;13.500;2023-03-12T08:32:09;4.20;99.90
13835;DHT22;6988;52.614;13.500;2023-03-12T08:37:03;4.40;99.90
13835;DHT22;6988;52.614;13.500;2023-03-12T08:41:55;4.70;99.90
13835;DHT22;6988;52.614;13.500;2023-03-12T08:46:48;5.00;99.90
13835;DHT22;6988;52.614;13.500;2023-03-12T08:51:39;5.30;99.90
13835;DHT22;6988;52.614;13.500;2023-03-12T08:56:33;5.40;99.90
13835;DHT22;6988;52.614;13.500;2023-03-12T09:01:26;5.70;99.90
13835;DHT22;6988;52.614;13.500;2023-03-12T09:06:18;5.90;99.90
13835;DHT22;6988;52.614;13.500;2023-03-12T09:11:11;6.30;99.90
13835;DHT22;6988;52.614;13.500;2023-03-12T09:16:06;6.30;99.90
13835;DHT22;6988;52.614;13.500;2023-03-12T09:20:58;6.10;99.90
13835;DHT22;6988;52.614;13.500;2023-03-12T09:25:51;6.10;99.90
13835;DHT22;6988;52.614;13.500;2023-03-12T09:30:43;6.30;99.90
13835;DHT22;6988;52.614;13.500;2023-03-12T09:35:37;6.60;99.90
13835;DHT22;6988;52.614;13.500;2023-03-12T09:40:31;6.60;99.90
13835;DHT22;6988;52.614;13.500;2023-03-12T09:45:28;6.70;99.90
13835;DHT22;6988;52.614;13.500;2023-03-12T09:50:26;6.70;99.90
13835;DHT22;6988;52.614;13.500;2023-03-12T09:55:23;7.00;99.90
13835;DHT22;6988;52.614;13.500;2023-03-12T10:00:18;7.00;99.90
13835;DHT22;6988;52.614;13.500;2023-03-12T10:05:16;6.60;99.90
13835;DHT22;6988;52.614;13.500;2023-03-12T10:10:26;6.50;99.90
13835;DHT22;6988;52.614;13.500;2023-03-12T10:15:34;6.30;99.90
13835;DHT22;6988;52.614;13.500;2023-03-12T10:20:52;6.40;99.90
13835;DHT22;6988;52.614;13.500;2023-03-12T10:26:09;6.70;99.90
13835;DHT22;6988;52.614;13.500;2023-03-12T10:31:11;6.80;99.90
13835;DHT22;6988;52.614;13.500;2023-03-12T10:36:15;7.00;99.90
13835;DHT22;6988;52.614;13.500;2023-03-12T10:41:18;7.10;99.90
13835;DHT22;6988;52.614;13.500;2023-03-12T10:51:53;7.10;99.90
13835;DHT22;6988;52.614;13.500;2023-03-12T10:56:49;7.10;99.90
13835;DHT22;6988;52.614;13.500;2023-03-12T11:01:46;7.30;99.90
13835;DHT22;6988;52.614;13.500;2023-03-12T11:06:40;7.50;99.90
13835;DHT22;6988;52.614;13.500;2023-03-12T11:11:33;7.70;99.90
13835;DHT22;6988;52.614;13.500;2023-03-12T11:16:27;7.90;99.90
13835;DHT22;6988;52.614;13.500;2023-03-12T11:21:19;7.80;99.90
13835;DHT22;6988;52.614;13.500;2023-03-12T11:26:15;7.90;99.90
13835;DHT22;6988;52.614;13.500;2023-03-12T11:31:14;7.70;99.90
13835;DHT22;6988;52.614;13.500;2023-03-12T11:36:21;7.70;99.90
13835;DHT22;6988;52.614;13.500;2023-03-12T11:41:39;8.00;99.90
13835;DHT22;6988;52.614;13.500;2023-03-12T11:46:51;8.10;99.90
13835;DHT22;6988;52.614;13.500;2023-03-12T11:52:02;8.20;99.90
13835;DHT22;6988;52.614;13.500;2023-03-12T11:57:01;8.10;99.90
13835;DHT22;6988;52.614;13.500;2023-03-12T12:02:07;8.20;99.90
13835;DHT22;6988;52.614;13.500;2023-03-12T12:07:18;7.90;99.90
13835;DHT22;6988;52.614;13.500;2023-03-12T12:12:22;7.70;99.90
13835;DHT22;6988;52.614;13.500;2023-03-12T12:17:37;7.60;99.90
13835;DHT22;6988;52.614;13.500;2023-03-12T12:22:45;7.60;99.90
13835;DHT22;6988;52.614;13.500;2023-03-12T12:27:55;7.70;99.90
13835;DHT22;6988;52.614;13.500;2023-03-12T12:33:07;7.70;99.90
13835;DHT22;6988;52.614;13.500;2023-03-12T12:38:16;7.70;99.90
13835;DHT22;6988;52.614;13.500;2023-03-12T12:43:24;7.50;99.90
13835;DHT22;6988;52.614;13.500;2023-03-12T12:48:20;7.50;99.90
13835;DHT22;6988;52.614;13.500;2023-03-12T12:53:20;7.50;99.90
13835;DHT22;6988;52.614;13.500;2023-03-12T12:58:19;7.40;99.90
13835;DHT22;6988;52.614;13.500;2023-03-12T13:03:18;7.40;99.90
13835;DHT22;6988;52.614;13.500;2023-03-12T13:08:32;7.50;99.90
13835;DHT22;6988;52.614;13.500;2023-03-12T13:13:26;7.60;99.90
13835;DHT22;6988;52.614;13.500;2023-03-12T13:18:22;7.60;99.90
13835;DHT22;6988;52.614;13.500;2023-03-12T13:23:29;7.70;99.90
13835;DHT22;6988;52.614;13.500;2023-03-12T13:28:33;7.40;99.90
13835;DHT22;6988;52.614;13.500;2023-03-12T13:33:39;7.10;99.90
13835;DHT22;6988;52.614;13.500;2023-03-12T13:38:38;7.10;99.90
13835;DHT22;6988;52.614;13.500;2023-03-12T13:43:52;7.10;99.90
13835;DHT22;6988;52.614;13.500;2023-03-12T13:48:44;7.10;99.90
13835;DHT22;6988;52.614;13.500;2023-03-12T13:53:39;7.00;99.90
13835;DHT22;6988;52.614;13.500;2023-03-12T13:58:35;7.00;99.90
13835;DHT22;6988;52.614;13.500;2023-03-12T14:03:34;7.00;99.90
13835;DHT22;6988;52.614;13.500;2023-03-12T14:14:31;6.80;99.90
13835;DHT22;6988;52.614;13.500;2023-03-12T14:19:47;6.80;99.90
13835;DHT22;6988;52.614;13.500;2023-03-12T14:24:49;6.70;99.90
13835;DHT22;6988;52.614;13.500;2023-03-12T14:29:48;6.60;99.90
13835;DHT22;6988;52.614;13.500;2023-03-12T14:34:46;6.50;99.90
13835;DHT22;6988;52.614;13.500;2023-03-12T14:39:44;6.40;99.90
13835;DHT22;6988;52.614;13.500;2023-03-12T14:44:53;6.30;99.90
13835;DHT22;6988;52.614;13.500;2023-03-12T14:49:47;6.10;99.90
13835;DHT22;6988;52.614;13.500;2023-03-12T14:54:51;6.00;99.90
13835;DHT22;6988;52.614;13.500;2023-03-12T14:59:52;5.90;99.90
13835;DHT22;6988;52.614;13.500;2023-03-12T15:04:46;5.70;99.90
13835;DHT22;6988;52.614;13.500;2023-03-12T15:09:42;5.70;99.90
13835;DHT22;6988;52.614;13.500;2023-03-12T15:14:39;5.60;99.90
13835;DHT22;6988;52.614;13.500;2023-03-12T15:19:35;5.60;99.90
13835;DHT22;6988;52.614;13.500;2023-03-12T15:24:35;5.50;99.90
13835;DHT22;6988;52.614;13.500;2023-03-12T15:29:30;5.40;99.90
13835;DHT22;6988;52.614;13.500;2023-03-12T15:34:30;5.50;99.90
13835;DHT22;6988;52.614;13.500;2023-03-12T15:39:26;5.40;99.90
13835;DHT22;6988;52.614;13.500;2023-03-12T15:44:22;5.40;99.90
13835;DHT22;6988;52.614;13.500;2023-03-12T15:49:22;5.30;99.90
13835;DHT22;6988;52.614;13.500;2023-03-12T15:54:25;5.20;99.90
13835;DHT22;6988;52.614;13.500;2023-03-12T15:59:22;4.90;99.90
13835;DHT22;6988;52.614;13.500;2023-03-12T16:04:16;4.90;99.90
13835;DHT22;6988;52.614;13.500;2023-03-12T16:09:10;4.90;99.90
13835;DHT22;6988;52.614;13.500;2023-03-12T16:14:13;4.90;99.90
13835;DHT22;6988;52.614;13.500;2023-03-12T16:19:10;4.80;99.90
13835;DHT22;6988;52.614;13.500;2023-03-12T16:24:04;4.70;99.90
13835;DHT22;6988;52.614;13.500;2023-03-12T16:28:57;4.60;99.90
13835;DHT22;6988;52.614;13.500;2023-03-12T16:33:50;4.60;99.90
13835;DHT22;6988;52.614;13.500;2023-03-12T16:38:43;4.50;99.90
13835;DHT22;6988;52.614;13.500;2023-03-12T16:43:35;4.20;99.90
13835;DHT22;6988;52.614;13.500;2023-03-12T16:48:27;4.40;99.90
13835;DHT22;6988;52.614;13.500;2023-03-12T16:53:21;4.40;99.90
13835;DHT22;6988;52.614;13.500;2023-03-12T16:58:16;4.40;99.90
13835;DHT22;6988;52.614;13.500;2023-03-12T17:03:16;4.70;99.90
13835;DHT22;6988;52.614;13.500;2023-03-12T17:08:11;4.50;99.90
13835;DHT22;6988;52.614;13.500;2023-03-12T17:13:06;4.40;99.90
13835;DHT22;6988;52.614;13.500;2023-03-12T17:18:09;4.30;99.90
13835;DHT22;6988;52.614;13.500;2023-03-12T17:23:01;4.20;99.90
13835;DHT22;6988;52.614;13.500;2023-03-12T17:27:53;4.10;99.90
13835;DHT22;6988;52.614;13.500;2023-03-12T17:32:48;4.00;99.90
13835;DHT22;6988;52.614;13.500;2023-03-12T17:37:40;4.00;99.90
13835;DHT22;6988;52.614;13.500;2023-03-12T17:42:32;4.00;99.90
13835;DHT22;6988;52.614;13.500;2023-03-12T17:47:24;4.10;99.90
13835;DHT22;6988;52.614;13.500;2023-03-12T17:52:18;3.90;99.90
13835;DHT22;6988;52.614;13.500;2023-03-12T17:57:10;4.00;99.90
13835;DHT22;6988;52.614;13.500;2023-03-12T18:02:01;4.00;99.90
13835;DHT22;6988;52.614;13.500;2023-03-12T18:06:53;4.00;99.90
13835;DHT22;6988;52.614;13.500;2023-03-12T18:11:46;3.90;99.90
13835;DHT22;6988;52.614;13.500;2023-03-12T18:16:38;4.00;99.90
13835;DHT22;6988;52.614;13.500;2023-03-12T18:21:30;4.00;99.90
13835;DHT22;6988;52.614;13.500;2023-03-12T18:26:21;4.00;99.90
13835;DHT22;6988;52.614;13.500;2023-03-12T18:31:14;4.00;99.90
13835;DHT22;6988;52.614;13.500;2023-03-12T18:36:07;3.90;99.90
13835;DHT22;6988;52.614;13.500;2023-03-12T18:41:02;3.90;99.90
13835;DHT22;6988;52.614;13.500;2023-03-12T18:45:55;3.80;99.90
13835;DHT22;6988;52.614;13.500;2023-03-12T18:50:48;3.80;99.90
13835;DHT22;6988;52.614;13.500;2023-03-12T18:55:48;3.80;99.90
13835;DHT22;6988;52.614;13.500;2023-03-12T19:00:40;3.80;99.90
13835;DHT22;6988;52.614;13.500;2023-03-12T19:05:35;3.80;99.90
13835;DHT22;6988;52.614;13.500;2023-03-12T19:10:28;3.80;99.90
13835;DHT22;6988;52.614;13.500;2023-03-12T19:15:21;3.80;99.90
13835;DHT22;6988;52.614;13.500;2023-03-12T19:20:14;3.70;99.90
13835;DHT22;6988;52.614;13.500;2023-03-12T19:25:06;3.70;99.90
13835;DHT22;6988;52.614;13.500;2023-03-12T19:30:06;3.70;99.90
13835;DHT22;6988;52.614;13.500;2023-03-12T19:35:23;3.80;99.90
13835;DHT22;6988;52.614;13.500;2023-03-12T19:40:15;3.80;99.90
13835;DHT22;6988;52.614;13.500;2023-03-12T19:45:09;3.90;99.90
13835;DHT22;6988;52.614;13.500;2023-03-12T19:50:03;3.80;99.90
13835;DHT22;6988;52.614;13.500;2023-03-12T19:54:56;3.90;99.90
13835;DHT22;6988;52.614;13.500;2023-03-12T19:59:48;3.90;99.90
13835;DHT22;6988;52.614;13.500;2023-03-12T20:04:41;3.90;99.90
13835;DHT22;6988;52.614;13.500;2023-03-12T20:09:33;3.90;99.90
13835;DHT22;6988;52.614;13.500;2023-03-12T20:14:28;4.00;99.90
13835;DHT22;6988;52.614;13.500;2023-03-12T20:19:39;4.00;99.90
13835;DHT22;6988;52.614;13.500;2023-03-12T20:24:42;3.90;99.90
13835;DHT22;6988;52.614;13.500;2023-03-12T20:29:34;4.00;99.90
13835;DHT22;6988;52.614;13.500;2023-03-12T20:34:28;4.10;99.90
13835;DHT22;6988;52.614;13.500;2023-03-12T20:39:21;4.30;99.90
13835;DHT22;6988;52.614;13.500;2023-03-12T20:44:12;4.30;99.90
13835;DHT22;6988;52.614;13.500;2023-03-12T20:49:06;4.20;99.90
13835;DHT22;6988;52.614;13.500;2023-03-12T20:54:01;4.30;99.90
13835;DHT22;6988;52.614;13.500;2023-03-12T20:58:54;4.40;99.90
13835;DHT22;6988;52.614;13.500;2023-03-12T21:03:46;4.50;99.90
13835;DHT22;6988;52.614;13.500;2023-03-12T21:08:38;4.60;99.90
13835;DHT22;6988;52.614;13.500;2023-03-12T21:13:30;4.80;99.90
13835;DHT22;6988;52.614;13.500;2023-03-12T21:18:23;4.90;99.90
13835;DHT22;6988;52.614;13.500;2023-03-12T21:23:15;4.90;99.90
13835;DHT22;6988;52.614;13.500;2023-03-12T21:28:08;5.00;99.90
13835;DHT22;6988;52.614;13.500;2023-03-12T21:33:01;5.10;99.90
13835;DHT22;6988;52.614;13.500;2023-03-12T21:37:54;5.40;99.90
13835;DHT22;6988;52.614;13.500;2023-03-12T21:42:46;5.40;99.90
13835;DHT22;6988;52.614;13.500;2023-03-12T21:47:38;5.40;99.90
13835;DHT22;6988;52.614;13.500;2023-03-12T21:52:31;5.40;99.90
13835;DHT22;6988;52.614;13.500;2023-03-12T21:57:30;5.50;99.90
13835;DHT22;6988;52.614;13.500;2023-03-12T22:02:21;5.50;99.90
13835;DHT22;6988;52.614;13.500;2023-03-12T22:07:13;5.50;99.90
13835;DHT22;6988;52.614;13.500;2023-03-12T22:12:05;5.60;99.90
13835;DHT22;6988;52.614;13.500;2023-03-12T22:16:58;5.70;99.90
13835;DHT22;6988;52.614;13.500;2023-03-12T22:21:50;5.80;99.90
13835;DHT22;6988;52.614;13.500;2023-03-12T22:26:42;5.90;99.90
13835;DHT22;6988;52.614;13.500;2023-03-12T22:31:33;5.80;99.90
13835;DHT22;6988;52.614;13.500;2023-03-12T22:36:27;5.80;99.90
13835;DHT22;6988;52.614;13.500;2023-03-12T22:41:20;5.90;99.90
13835;DHT22;6988;52.614;13.500;2023-03-12T23:04:26;5.60;99.90
13835;DHT22;6988;52.614;13.500;2023-03-12T23:09:18;5.60;99.90
13835;DHT22;6988;52.614;13.500;2023-03-12T23:14:10;5.70;99.90
13835;DHT22;6988;52.614;13.500;2023-03-12T23:19:01;5.70;99.90
13835;DHT22;6988;52.614;13.500;2023-03-12T23:23:54;5.70;99.90
13835;DHT22;6988;52.614;13.500;2023-03-12T23:28:47;5.80;99.90
13835;DHT22;6988;52.614;13.500;2023-03-12T23:33:42;5.90;99.90
13835;DHT22;6988;52.614;13.500;2023-03-12T23:38:34;5.90;99.90
13835;DHT22;6988;52.614;13.500;2023-03-12T23:43:28;6.00;99.90
13835;DHT22;6988;52.614;13.500;2023-03-12T23:48:19;6.00;99.90
13835;DHT22;6988;52.614;13.500;2023-03-12T23:53:11;6.00;99.90
13835;DHT22;6988;52.614;13.500;2023-03-12T23:58:06;6.10;99.90
